createdAt,value
2023-04-18T00:00:41.206Z,9.70
2023-04-18T00:03:27.088Z,10.13
2023-04-18T00:06:12.945Z,9.89
2023-04-18T00:08:57.366Z,9.83
2023-04-18T00:11:41.439Z,9.78
2023-04-18T00:14:25.316Z,9.94
2023-04-18T00:17:10.478Z,9.46
2023-04-18T00:19:56.574Z,9.45
2023-04-18T00:22:42.630Z,9.29
2023-04-18T00:25:26.970Z,9.37
2023-04-18T00:28:11.123Z,9.05
2023-04-18T00:30:55.087Z,9.21
2023-04-18T00:33:38.887Z,9.22
2023-04-18T00:36:24.081Z,9.27
2023-04-18T00:39:08.064Z,9.23
2023-04-18T00:41:52.017Z,9.27
2023-04-18T00:44:35.808Z,9.26
2023-04-18T00:47:19.921Z,9.37
2023-04-18T00:50:04.173Z,9.67
2023-04-18T00:52:50.104Z,9.40
2023-04-18T00:55:34.320Z,9.06
2023-04-18T00:58:20.101Z,8.79
2023-04-18T01:01:04.140Z,8.98
2023-04-18T01:03:48.246Z,8.95
2023-04-18T01:06:32.254Z,8.93
2023-04-18T01:09:17.467Z,8.83
2023-04-18T01:12:01.978Z,8.87
2023-04-18T01:14:45.823Z,8.37
2023-04-18T01:17:29.771Z,9.05
2023-04-18T01:20:16.944Z,9.32
2023-04-18T01:23:01.330Z,9.24
2023-04-18T01:25:47.090Z,9.30
2023-04-18T01:28:31.001Z,9.42
2023-04-18T01:31:14.903Z,8.65
2023-04-18T01:33:58.789Z,8.62
2023-04-18T01:36:42.676Z,8.69
2023-04-18T01:39:29.303Z,8.59
2023-04-18T01:42:14.605Z,8.85
2023-04-18T01:44:58.556Z,8.97
2023-04-18T01:47:42.524Z,8.82
2023-04-18T01:50:29.189Z,8.59
2023-04-18T01:53:13.021Z,8.44
2023-04-18T01:55:57.802Z,8.82
2023-04-18T01:58:43.005Z,8.91
2023-04-18T02:01:26.984Z,7.92
2023-04-18T02:04:10.928Z,8.31
2023-04-18T02:06:55.495Z,8.05
2023-04-18T02:09:39.431Z,8.39
2023-04-18T02:12:23.687Z,8.92
2023-04-18T02:15:10.703Z,8.61
2023-04-18T02:17:55.445Z,8.50
2023-04-18T02:20:40.704Z,8.90
2023-04-18T02:23:24.691Z,8.87
2023-04-18T02:26:08.595Z,8.42
2023-04-18T02:28:52.758Z,8.41
2023-04-18T02:31:41.770Z,8.47
2023-04-18T02:34:25.829Z,8.30
2023-04-18T02:37:09.785Z,8.56
2023-04-18T02:39:55.358Z,9.06
2023-04-18T02:42:39.191Z,9.14
2023-04-18T02:45:23.224Z,9.23
2023-04-18T02:48:08.947Z,9.04
2023-04-18T02:50:53.056Z,9.16
2023-04-18T02:53:37.014Z,9.07
2023-04-18T02:56:20.899Z,8.86
2023-04-18T02:59:23.301Z,9.19
2023-04-18T03:02:25.788Z,8.66
2023-04-18T03:05:16.707Z,8.96
2023-04-18T03:08:01.017Z,8.75
2023-04-18T03:10:45.665Z,8.96
2023-04-18T03:13:29.820Z,8.57
2023-04-18T03:16:14.885Z,8.44
2023-04-18T03:19:00.013Z,8.62
2023-04-18T03:21:45.689Z,8.23
2023-04-18T03:24:29.708Z,8.39
2023-04-18T03:27:17.060Z,8.05
2023-04-18T03:30:02.675Z,8.75
2023-04-18T03:32:50.110Z,8.76
2023-04-18T03:35:34.113Z,8.72
2023-04-18T03:38:19.456Z,8.52
2023-04-18T03:41:03.269Z,8.34
2023-04-18T03:43:51.035Z,8.33
2023-04-18T03:46:35.155Z,8.43
2023-04-18T03:49:20.010Z,8.42
2023-04-18T03:52:04.713Z,8.31
2023-04-18T03:54:50.294Z,8.25
2023-04-18T03:57:36.992Z,8.88
2023-04-18T04:00:25.311Z,9.24
2023-04-18T04:03:16.677Z,9.01
2023-04-18T04:06:03.518Z,8.74
2023-04-18T04:08:47.432Z,8.78
2023-04-18T04:11:37.381Z,8.60
2023-04-18T04:14:24.668Z,8.62
2023-04-18T04:17:10.568Z,8.52
2023-04-18T04:19:56.135Z,8.67
2023-04-18T04:22:40.117Z,8.72
2023-04-18T04:25:24.818Z,8.50
2023-04-18T04:28:13.328Z,8.71
2023-04-18T04:31:10.333Z,8.68
2023-04-18T04:33:55.370Z,8.76
2023-04-18T04:36:41.331Z,8.93
2023-04-18T04:39:28.270Z,9.04
2023-04-18T04:42:49.222Z,9.03
2023-04-18T04:45:41.581Z,9.11
2023-04-18T04:48:25.682Z,8.77
2023-04-18T04:51:10.850Z,8.82
2023-04-18T04:53:54.732Z,8.93
2023-04-18T04:56:39.437Z,8.86
2023-04-18T04:59:23.668Z,8.53
2023-04-18T05:02:09.168Z,8.63
2023-04-18T05:04:53.401Z,8.76
2023-04-18T05:07:37.260Z,8.89
2023-04-18T05:10:21.821Z,8.98
2023-04-18T05:13:05.750Z,9.43
2023-04-18T05:15:49.694Z,9.08
2023-04-18T05:18:35.113Z,9.54
2023-04-18T05:21:19.058Z,9.25
2023-04-18T05:24:02.930Z,9.50
2023-04-18T05:26:46.785Z,10.26
2023-04-18T05:29:30.664Z,10.20
2023-04-18T05:32:14.872Z,10.06
2023-04-18T05:35:00.502Z,9.81
2023-04-18T05:37:44.514Z,9.86
2023-04-18T05:40:28.569Z,9.93
2023-04-18T05:43:12.761Z,10.34
2023-04-18T05:45:58.082Z,10.35
2023-04-18T05:48:42.086Z,9.73
2023-04-18T05:51:28.748Z,9.89
2023-04-18T05:54:12.969Z,10.06
2023-04-18T05:56:58.776Z,9.67
2023-04-18T05:59:42.689Z,9.48
2023-04-18T06:02:27.186Z,10.00
2023-04-18T06:05:11.670Z,10.29
2023-04-18T06:07:57.468Z,10.21
2023-04-18T06:10:41.441Z,10.40
2023-04-18T06:13:26.780Z,10.49
2023-04-18T06:16:10.588Z,10.34
2023-04-18T06:18:55.095Z,10.07
2023-04-18T06:21:39.908Z,10.17
2023-04-18T06:24:25.262Z,9.78
2023-04-18T06:27:17.534Z,9.98
2023-04-18T06:30:06.137Z,10.26
2023-04-18T06:32:50.686Z,10.45
2023-04-18T06:35:35.083Z,10.52
2023-04-18T06:38:19.769Z,10.31
2023-04-18T06:41:05.487Z,10.60
2023-04-18T06:44:02.823Z,10.49
2023-04-18T06:46:48.249Z,10.98
2023-04-18T06:49:32.497Z,11.07
2023-04-18T06:52:16.776Z,11.14
2023-04-18T06:55:00.894Z,11.02
2023-04-18T06:57:46.330Z,11.11
2023-04-18T07:00:30.397Z,11.28
2023-04-18T07:03:14.669Z,11.40
2023-04-18T07:05:58.733Z,12.33
2023-04-18T07:08:42.863Z,12.33
2023-04-18T07:11:27.226Z,12.52
2023-04-18T07:14:13.317Z,12.36
2023-04-18T07:16:57.741Z,13.57
2023-04-18T07:19:42.399Z,12.69
2023-04-18T07:22:26.265Z,12.21
2023-04-18T07:25:10.818Z,11.73
2023-04-18T07:27:54.647Z,11.87
2023-04-18T07:30:39.855Z,12.15
2023-04-18T07:33:23.743Z,12.12
2023-04-18T07:36:08.307Z,13.06
2023-04-18T07:38:52.595Z,14.49
2023-04-18T07:41:36.773Z,13.99
2023-04-18T07:44:21.575Z,13.45
2023-04-18T07:47:10.473Z,13.12
2023-04-18T07:49:54.314Z,12.97
2023-04-18T07:52:39.392Z,13.60
2023-04-18T07:55:23.665Z,13.38
2023-04-18T07:58:07.551Z,14.10
2023-04-18T08:00:51.379Z,14.98
2023-04-18T08:03:37.264Z,14.87
2023-04-18T08:06:21.572Z,14.01
2023-04-18T08:09:05.713Z,15.59
2023-04-18T08:11:49.645Z,16.57
2023-04-18T08:14:33.661Z,15.20
2023-04-18T08:17:17.583Z,13.88
2023-04-18T08:20:06.925Z,14.51
2023-04-18T08:25:41.206Z,15.30
2023-04-18T08:28:25.029Z,13.79
2023-04-18T08:31:13.486Z,13.32
2023-04-18T08:33:57.460Z,13.36
2023-04-18T08:36:42.789Z,12.97
2023-04-18T08:39:26.666Z,13.12
2023-04-18T08:42:11.864Z,13.94
2023-04-18T08:44:56.134Z,14.24
2023-04-18T08:47:40.004Z,13.26
2023-04-18T08:50:24.064Z,13.26
2023-04-18T08:53:09.550Z,14.01
2023-04-18T08:55:55.285Z,14.19
2023-04-18T08:58:39.049Z,14.11
2023-04-18T09:01:23.068Z,14.18
2023-04-18T09:04:08.029Z,14.30
2023-04-18T09:06:53.799Z,14.29
2023-04-18T09:09:47.906Z,14.67
2023-04-18T09:12:32.788Z,14.96
2023-04-18T09:15:19.140Z,15.31
2023-04-18T09:18:03.555Z,15.01
2023-04-18T09:20:49.901Z,14.54
2023-04-18T09:23:33.816Z,15.18
2023-04-18T09:26:33.936Z,15.66
2023-04-18T09:29:18.690Z,16.22
2023-04-18T09:32:03.264Z,16.41
2023-04-18T09:34:47.350Z,16.67
2023-04-18T09:37:31.203Z,17.03
2023-04-18T09:40:18.156Z,17.06
2023-04-18T09:43:19.378Z,17.72
2023-04-18T09:46:04.897Z,17.72
2023-04-18T09:48:48.819Z,17.95
2023-04-18T09:51:34.380Z,16.96
2023-04-18T09:54:19.867Z,15.96
2023-04-18T09:57:07.537Z,14.62
2023-04-18T09:59:56.306Z,14.47
2023-04-18T10:02:49.012Z,14.39
2023-04-18T10:05:34.914Z,14.00
2023-04-18T10:08:19.097Z,14.51
2023-04-18T10:11:03.144Z,14.04
2023-04-18T10:13:50.613Z,13.95
2023-04-18T10:16:37.591Z,13.91
2023-04-18T10:19:24.261Z,14.08
2023-04-18T10:22:08.333Z,14.60
2023-04-18T10:24:57.142Z,14.58
2023-04-18T10:28:00.504Z,15.14
2023-04-18T10:31:03.023Z,16.05
2023-04-18T10:34:00.746Z,15.91
2023-04-18T10:37:06.279Z,15.60
2023-04-18T10:39:58.624Z,15.61
2023-04-18T10:43:01.026Z,14.50
2023-04-18T10:45:45.034Z,15.52
2023-04-18T10:48:31.390Z,15.72
2023-04-18T10:51:19.115Z,16.60
2023-04-18T10:54:04.952Z,16.14
2023-04-18T10:56:55.394Z,16.25
2023-04-18T10:59:41.195Z,15.76
2023-04-18T11:02:28.910Z,15.37
2023-04-18T11:05:13.818Z,14.84
2023-04-18T11:07:59.007Z,14.86
2023-04-18T11:10:42.904Z,15.80
2023-04-18T11:13:26.976Z,16.49
2023-04-18T11:16:10.814Z,17.36
2023-04-18T11:18:55.108Z,18.66
2023-04-18T11:21:38.978Z,18.72
2023-04-18T11:24:25.137Z,18.76
2023-04-18T11:27:11.142Z,18.64
2023-04-18T11:29:55.855Z,18.31
2023-04-18T11:32:40.095Z,18.07
2023-04-18T11:35:24.258Z,17.52
2023-04-18T11:38:09.031Z,17.43
2023-04-18T11:40:54.285Z,17.51
2023-04-18T11:43:38.278Z,16.99
2023-04-18T11:46:22.127Z,17.43
2023-04-18T11:49:06.199Z,17.66
2023-04-18T11:51:49.942Z,17.16
2023-04-18T11:54:38.682Z,18.73
2023-04-18T11:57:26.461Z,18.45
2023-04-18T12:00:12.564Z,19.20
2023-04-18T12:02:57.001Z,18.08
2023-04-18T12:05:41.220Z,17.87
2023-04-18T12:08:26.860Z,17.91
2023-04-18T12:11:10.796Z,18.05
2023-04-18T12:13:58.158Z,18.67
2023-04-18T12:16:43.173Z,19.57
2023-04-18T12:19:28.801Z,20.03
2023-04-18T12:22:16.930Z,19.28
2023-04-18T12:25:10.541Z,18.24
2023-04-18T12:27:58.044Z,19.56
2023-04-18T12:30:43.844Z,19.36
2023-04-18T12:33:28.020Z,19.14
2023-04-18T12:36:11.852Z,19.00
2023-04-18T12:38:56.031Z,19.07
2023-04-18T12:41:39.854Z,18.47
2023-04-18T12:44:24.692Z,18.08
2023-04-18T12:47:10.774Z,18.45
2023-04-18T12:49:54.619Z,18.09
2023-04-18T12:52:40.869Z,18.25
2023-04-18T12:55:25.947Z,17.38
2023-04-18T12:58:09.919Z,17.98
2023-04-18T13:00:53.855Z,17.96
2023-04-18T13:03:39.233Z,17.79
2023-04-18T13:06:24.534Z,18.42
2023-04-18T13:09:09.257Z,18.03
2023-04-18T13:11:53.096Z,18.02
2023-04-18T13:14:36.934Z,18.04
2023-04-18T13:17:21.006Z,17.56
2023-04-18T13:20:07.561Z,17.75
2023-04-18T13:22:51.422Z,19.22
2023-04-18T13:25:35.477Z,19.71
2023-04-18T13:28:19.244Z,19.75
2023-04-18T13:31:03.219Z,18.70
2023-04-18T13:33:47.010Z,18.89
2023-04-18T13:36:34.834Z,19.31
2023-04-18T13:39:19.249Z,19.99
2023-04-18T13:42:04.567Z,19.58
2023-04-18T13:44:48.559Z,20.07
2023-04-18T13:47:32.552Z,20.02
2023-04-18T13:50:16.618Z,19.53
2023-04-18T13:53:01.993Z,20.31
2023-04-18T13:55:46.018Z,20.60
2023-04-18T13:58:29.927Z,20.27
2023-04-18T14:01:14.199Z,20.03
2023-04-18T14:03:58.254Z,19.57
2023-04-18T14:06:42.458Z,19.65
2023-04-18T14:09:28.327Z,19.85
2023-04-18T14:12:12.540Z,20.25
2023-04-18T14:14:56.370Z,20.31
2023-04-18T14:17:40.397Z,20.55
2023-04-18T14:20:24.402Z,20.00
2023-04-18T14:23:08.165Z,19.87
2023-04-18T14:25:53.357Z,19.22
2023-04-18T14:28:37.216Z,19.40
2023-04-18T14:31:21.197Z,19.65
2023-04-18T14:34:05.684Z,19.27
2023-04-18T14:36:49.481Z,19.30
2023-04-18T14:39:33.400Z,18.82
2023-04-18T14:42:19.965Z,19.17
2023-04-18T14:45:05.262Z,19.48
2023-04-18T14:47:49.270Z,19.68
2023-04-18T14:50:33.187Z,19.31
2023-04-18T14:53:17.126Z,18.80
2023-04-18T14:56:01.229Z,18.16
2023-04-18T14:58:46.634Z,18.32
2023-04-18T15:01:30.473Z,18.52
2023-04-18T15:04:14.915Z,18.79
2023-04-18T15:06:59.039Z,18.59
2023-04-18T15:09:42.981Z,17.84
2023-04-18T15:12:26.860Z,18.00
2023-04-18T15:15:12.935Z,18.37
2023-04-18T15:17:56.866Z,18.39
2023-04-18T15:20:41.083Z,18.07
2023-04-18T15:23:24.962Z,17.32
2023-04-18T15:26:08.914Z,17.02
2023-04-18T15:28:55.635Z,16.79
2023-04-18T15:31:40.862Z,16.61
2023-04-18T15:34:25.616Z,16.56
2023-04-18T15:37:09.600Z,16.48
2023-04-18T15:39:53.605Z,16.66
2023-04-18T15:42:37.543Z,16.74
2023-04-18T15:45:21.954Z,16.70
2023-04-18T15:48:07.980Z,16.24
2023-04-18T15:50:52.281Z,16.91
2023-04-18T15:53:36.219Z,16.86
2023-04-18T15:56:20.013Z,17.36
2023-04-18T15:59:06.065Z,16.63
2023-04-18T16:01:50.195Z,16.48
2023-04-18T16:04:36.118Z,16.49
2023-04-18T16:07:20.329Z,16.41
2023-04-18T16:10:04.458Z,16.01
2023-04-18T16:12:48.862Z,15.85
2023-04-18T16:15:33.111Z,15.59
2023-04-18T16:18:17.280Z,14.96
2023-04-18T16:21:03.169Z,15.35
2023-04-18T16:23:46.943Z,15.52
2023-04-18T16:26:30.880Z,15.42
2023-04-18T16:29:14.735Z,15.27
2023-04-18T16:31:58.744Z,15.20
2023-04-18T16:34:42.590Z,15.11
2023-04-18T16:37:27.930Z,14.89
2023-04-18T16:40:12.424Z,14.80
2023-04-18T16:42:56.290Z,15.02
2023-04-18T16:45:40.269Z,15.05
2023-04-18T16:48:24.402Z,14.99
2023-04-18T16:51:08.476Z,13.96
2023-04-18T16:53:53.653Z,13.46
2023-04-18T16:56:37.708Z,13.27
2023-04-18T16:59:21.606Z,13.14
2023-04-18T17:02:05.681Z,12.84
2023-04-18T17:04:49.677Z,12.95
2023-04-18T17:07:33.578Z,12.88
2023-04-18T17:10:19.244Z,12.68
2023-04-18T17:13:04.632Z,12.86
2023-04-18T17:15:48.459Z,12.60
2023-04-18T17:18:32.335Z,12.53
2023-04-18T17:21:16.238Z,12.64
2023-04-18T17:24:03.599Z,12.36
2023-04-18T17:26:49.310Z,13.16
2023-04-18T17:29:33.346Z,13.37
2023-04-18T17:32:17.766Z,13.26
2023-04-18T17:35:04.355Z,13.52
2023-04-18T17:37:50.609Z,13.90
2023-04-18T17:40:35.333Z,14.05
2023-04-18T17:43:20.821Z,14.06
2023-04-18T17:46:04.730Z,13.99
2023-04-18T17:48:48.577Z,14.08
2023-04-18T17:51:32.495Z,13.71
2023-04-18T17:54:16.549Z,14.11
2023-04-18T17:57:00.382Z,14.21
2023-04-18T17:59:45.731Z,14.27
2023-04-18T18:02:29.701Z,14.21
2023-04-18T18:05:16.727Z,13.90
2023-04-18T18:08:01.492Z,14.27
2023-04-18T18:10:47.118Z,14.16
2023-04-18T18:13:31.170Z,14.15
2023-04-18T18:16:16.494Z,14.17
2023-04-18T18:19:00.494Z,14.13
2023-04-18T18:21:44.536Z,14.21
2023-04-18T18:24:28.412Z,14.11
2023-04-18T18:27:12.494Z,14.12
2023-04-18T18:29:56.518Z,13.98
2023-04-18T18:32:41.970Z,13.96
2023-04-18T18:35:25.898Z,14.07
2023-04-18T18:38:10.262Z,14.08
2023-04-18T18:40:54.179Z,14.02
2023-04-18T18:43:38.168Z,14.03
2023-04-18T18:46:22.320Z,13.97
2023-04-18T18:49:08.339Z,13.85
2023-04-18T18:51:52.266Z,13.85
2023-04-18T18:54:36.430Z,13.93
2023-04-18T18:57:20.908Z,13.96
2023-04-18T19:00:05.340Z,13.91
2023-04-18T19:02:49.931Z,13.83
2023-04-18T19:05:36.006Z,13.57
2023-04-18T19:08:20.171Z,13.32
2023-04-18T19:11:04.630Z,13.74
2023-04-18T19:13:49.023Z,13.18
2023-04-18T19:16:34.454Z,13.36
2023-04-18T19:19:18.812Z,13.46
2023-04-18T19:22:04.649Z,13.28
2023-04-18T19:24:49.646Z,13.22
2023-04-18T19:27:34.138Z,13.21
2023-04-18T19:30:18.345Z,13.36
2023-04-18T19:33:02.962Z,13.00
2023-04-18T19:35:47.299Z,12.61
2023-04-18T19:38:34.204Z,12.00
2023-04-18T19:41:18.396Z,11.92
2023-04-18T19:44:02.481Z,11.88
2023-04-18T19:46:46.868Z,11.78
2023-04-18T19:49:31.532Z,11.42
2023-04-18T19:52:16.898Z,11.90
2023-04-18T19:55:02.678Z,12.23
2023-04-18T19:57:47.713Z,12.29
2023-04-18T20:00:32.013Z,12.65
2023-04-18T20:03:17.310Z,12.77
2023-04-18T20:06:01.552Z,12.97
2023-04-18T20:08:46.130Z,12.93
2023-04-18T20:11:31.517Z,12.36
2023-04-18T20:14:15.325Z,12.29
2023-04-18T20:16:59.192Z,12.44
2023-04-18T20:19:43.109Z,12.53
2023-04-18T20:22:27.355Z,12.49
2023-04-18T20:25:11.337Z,12.48
2023-04-18T20:27:56.585Z,12.67
2023-04-18T20:30:40.575Z,12.84
2023-04-18T20:33:24.495Z,12.56
2023-04-18T20:36:08.558Z,12.62
2023-04-18T20:38:52.450Z,12.64
2023-04-18T20:41:37.035Z,12.63
2023-04-18T20:44:22.333Z,12.49
2023-04-18T20:47:06.443Z,12.27
2023-04-18T20:49:50.512Z,12.54
2023-04-18T20:52:34.273Z,12.57
2023-04-18T20:55:18.144Z,12.58
2023-04-18T20:58:02.049Z,12.50
2023-04-18T21:00:48.362Z,12.31
2023-04-18T21:03:32.479Z,11.84
2023-04-18T21:06:16.550Z,11.23
2023-04-18T21:09:00.360Z,10.89
2023-04-18T21:11:44.177Z,10.64
2023-04-18T21:14:27.984Z,10.55
2023-04-18T21:17:17.386Z,10.56
2023-04-18T21:20:01.318Z,10.49
2023-04-18T21:22:46.905Z,10.66
2023-04-18T21:25:30.581Z,10.69
2023-04-18T21:28:14.444Z,10.55
2023-04-18T21:30:58.203Z,10.77
2023-04-18T21:33:43.395Z,10.89
2023-04-18T21:36:28.610Z,10.72
2023-04-18T21:39:12.502Z,10.79
2023-04-18T21:41:57.276Z,10.78
2023-04-18T21:44:41.310Z,10.91
2023-04-18T21:47:25.993Z,10.86
2023-04-18T21:50:12.332Z,10.81
2023-04-18T21:52:56.153Z,10.78
2023-04-18T21:55:39.980Z,10.93
2023-04-18T21:58:23.827Z,10.99
2023-04-18T22:01:07.877Z,10.82
2023-04-18T22:03:52.167Z,10.80
2023-04-18T22:06:37.560Z,10.80
2023-04-18T22:09:21.480Z,10.67
2023-04-18T22:12:05.971Z,10.72
2023-04-18T22:14:49.684Z,10.65
2023-04-18T22:17:34.134Z,10.73
2023-04-18T22:20:18.577Z,10.76
2023-04-18T22:23:04.399Z,10.71
2023-04-18T22:25:48.158Z,10.64
2023-04-18T22:28:32.463Z,11.16
2023-04-18T22:31:16.357Z,10.93
2023-04-18T22:34:00.327Z,11.02
2023-04-18T22:36:45.641Z,11.40
2023-04-18T22:39:31.193Z,11.43
2023-04-18T22:42:15.094Z,11.33
2023-04-18T22:44:58.973Z,11.41
2023-04-18T22:47:42.834Z,10.48
2023-04-18T22:50:27.462Z,11.66
2023-04-18T22:53:11.463Z,11.65
2023-04-18T22:55:56.554Z,11.77
2023-04-18T22:58:40.324Z,11.47
2023-04-18T23:01:24.125Z,11.38
2023-04-18T23:04:08.377Z,11.71
2023-04-18T23:06:52.357Z,11.74
2023-04-18T23:09:36.171Z,11.97
2023-04-18T23:12:22.030Z,11.98
2023-04-18T23:15:06.811Z,12.03
2023-04-18T23:17:53.142Z,12.16
2023-04-18T23:20:37.978Z,11.90
2023-04-18T23:23:21.805Z,11.86
2023-04-18T23:26:13.768Z,11.99
2023-04-18T23:28:59.142Z,11.90
2023-04-18T23:31:43.221Z,12.06
2023-04-18T23:34:27.275Z,11.83
2023-04-18T23:37:11.298Z,12.07
2023-04-18T23:39:55.421Z,11.77
2023-04-18T23:42:39.453Z,11.16
2023-04-18T23:45:25.691Z,11.46
2023-04-18T23:48:09.711Z,11.17
2023-04-18T23:50:53.967Z,11.11
2023-04-18T23:53:38.067Z,11.22
2023-04-18T23:56:23.320Z,11.17
2023-04-18T23:59:08.211Z,11.17
